Sheridan, WY

3:32 PM MDT on August 30, 2014 (GMT -0600)
North Airport Area | Change Station
CLOSE
Current Station
Personal Weather Station
Location: Sheridan, WY
Elevation: 3917 ft
Nearby Weather Stations
Active Advisory: Special Statement

Elev 3917 ft 44.78 °N, 106.97 °W | Updated 14 minutes ago

Clear
Clear
72.5 °F
Feels Like 77 °F
N
6.3
Wind Variable Wind from NNW

Today
High -- | Low -- °F
--% Chance of Precip.
Yesterday
High -- | Low -- °F
Precip. -- in
6:27 AM 7:48 PM
Waxing Crescent, 25% visible
Pressure 29.72 in
Visibility 10.0 miles
Clouds Clear
Heat Index 77 °F
Dew Point 54 °F
Humidity 52%
Rainfall 0.00 in
Snow Depth Not available.
UV 7 out of 12
Pollen 8.50 out of 12
Air Quality Not available.
Flu Activity Not available.
METAR KSHR 302053Z AUTO 30014KT 10SM CLR 23/11 A2979 RMK AO2 SLP062 T02280106 56018

More Conditions Fewer Conditions

Pressure 29.72 in
Visibility 10.0 miles
Clouds Clear
Heat Index 77 °F
Dew Point 54 °F
Humidity 52%
Rainfall 0.00 in
Snow Depth Not available.
UV 7 out of 12
Pollen 8.50 out of 12
Air Quality Not available.
Flu Activity Not available.
METAR KSHR 302053Z AUTO 30014KT 10SM CLR 23/11 A2979 RMK AO2 SLP062 T02280106 56018

More Conditions Fewer Conditions

10-Day Weather Forecast

Almanac

Astronomy

Aug. 30, 2014 Rise Set
Actual Time 6:27 AM MDT 7:48 PM MDT
Civil Twilight 5:57 AM MDT 8:18 PM MDT
Nautical Twilight 5:20 AM MDT 8:54 PM MDT
Astronomical Twilight 4:41 AM MDT 9:33 PM MDT
Moon 11:31 AM MDT 10:09 PM MDT
Length of Visible Light 14h 20m
Length of Day
13h 20m
Tomorrow will be 2m 59s shorter.
Waxing Crescent, 25% of the Moon is Illuminated
Today
Waxing Crescent
Sep 2
First Quarter
Sep 8
Full
Sep 15
Last Quarter
Sep 24
New

Today's Extremes

State Highs State Lows

Community

WunderPhotos

Upload Photos

1,748,647 photos uploaded!

WunderBlogs® & News

Nearby

Snow Depth

Station Depth Elevation
Burgess Junction 0 in 7880 ft
Shell Creek 0 in 9580 ft
Bone Springs Divide 0 in 9350 ft
Hansen Sawmill 0 in 8360 ft
Marquette 1 in 8760 ft

Earthquake Activity

City Distance Mag. Time & Date
No recent earthquake activity has been reported nearby.
Minimum magnitude displayed is 2.5.

Coastal Water Temperatures

Place Temperature
No Stations Reporting

Nearby Weather Stations